sensor_id;sensor_type;location;lat;lon;timestamp;P1;durP1;ratioP1;P2;durP2;ratioP2
66893;SDS011;53801;55.786;49.142;2022-09-21T00:29:02;16.17;;;8.32;;
66893;SDS011;53801;55.786;49.142;2022-09-21T00:40:09;21.80;;;8.82;;
66893;SDS011;53801;55.786;49.142;2022-09-21T00:51:32;15.07;;;7.30;;
66893;SDS011;53801;55.786;49.142;2022-09-21T01:00:07;14.82;;;6.75;;
66893;SDS011;53801;55.786;49.142;2022-09-21T02:02:59;10.38;;;5.88;;
66893;SDS011;53801;55.786;49.142;2022-09-21T02:08:56;14.53;;;5.97;;
66893;SDS011;53801;55.786;49.142;2022-09-21T03:04:42;14.73;;;6.13;;
66893;SDS011;53801;55.786;49.142;2022-09-21T03:13:17;13.32;;;6.18;;
66893;SDS011;53801;55.786;49.142;2022-09-21T03:36:32;18.40;;;8.53;;
66893;SDS011;53801;55.786;49.142;2022-09-21T03:48:32;15.20;;;6.95;;
66893;SDS011;53801;55.786;49.142;2022-09-21T04:30:30;16.20;;;5.95;;
66893;SDS011;53801;55.786;49.142;2022-09-21T05:15:18;27.75;;;11.10;;
66893;SDS011;53801;55.786;49.142;2022-09-21T05:38:33;15.65;;;6.50;;
66893;SDS011;53801;55.786;49.142;2022-09-21T05:45:11;20.95;;;6.82;;
66893;SDS011;53801;55.786;49.142;2022-09-21T06:03:25;20.77;;;8.48;;
66893;SDS011;53801;55.786;49.142;2022-09-21T06:05:51;19.58;;;8.50;;
66893;SDS011;53801;55.786;49.142;2022-09-21T06:08:16;21.23;;;8.40;;
66893;SDS011;53801;55.786;49.142;2022-09-21T06:10:42;19.63;;;8.30;;
66893;SDS011;53801;55.786;49.142;2022-09-21T06:13:07;15.07;;;8.00;;
66893;SDS011;53801;55.786;49.142;2022-09-21T06:18:16;21.33;;;8.63;;
66893;SDS011;53801;55.786;49.142;2022-09-21T06:20:42;35.65;;;8.30;;
66893;SDS011;53801;55.786;49.142;2022-09-21T06:25:54;16.27;;;8.55;;
66893;SDS011;53801;55.786;49.142;2022-09-21T06:28:19;24.48;;;8.48;;
66893;SDS011;53801;55.786;49.142;2022-09-21T06:31:06;30.60;;;9.57;;
66893;SDS011;53801;55.786;49.142;2022-09-21T06:33:30;19.33;;;7.93;;
66893;SDS011;53801;55.786;49.142;2022-09-21T06:35:57;21.10;;;7.77;;
66893;SDS011;53801;55.786;49.142;2022-09-21T06:38:23;16.55;;;7.22;;
66893;SDS011;53801;55.786;49.142;2022-09-21T06:40:49;13.73;;;7.53;;
66893;SDS011;53801;55.786;49.142;2022-09-21T06:46:13;17.40;;;8.07;;
66893;SDS011;53801;55.786;49.142;2022-09-21T06:48:41;21.60;;;7.63;;
66893;SDS011;53801;55.786;49.142;2022-09-21T06:51:06;14.67;;;7.27;;
66893;SDS011;53801;55.786;49.142;2022-09-21T06:53:34;17.05;;;7.22;;
66893;SDS011;53801;55.786;49.142;2022-09-21T06:56:03;14.10;;;7.38;;
66893;SDS011;53801;55.786;49.142;2022-09-21T06:58:29;16.07;;;7.53;;
66893;SDS011;53801;55.786;49.142;2022-09-21T07:00:56;17.23;;;7.65;;
66893;SDS011;53801;55.786;49.142;2022-09-21T07:03:26;19.98;;;8.00;;
66893;SDS011;53801;55.786;49.142;2022-09-21T07:05:52;25.85;;;8.05;;
66893;SDS011;53801;55.786;49.142;2022-09-21T07:08:17;20.25;;;8.80;;
66893;SDS011;53801;55.786;49.142;2022-09-21T07:10:43;16.67;;;8.37;;
66893;SDS011;53801;55.786;49.142;2022-09-21T07:15:57;17.00;;;9.00;;
66893;SDS011;53801;55.786;49.142;2022-09-21T07:18:23;27.23;;;9.50;;
66893;SDS011;53801;55.786;49.142;2022-09-21T07:20:53;18.67;;;9.73;;
66893;SDS011;53801;55.786;49.142;2022-09-21T07:23:19;20.40;;;9.57;;
66893;SDS011;53801;55.786;49.142;2022-09-21T07:25:53;21.92;;;9.80;;
66893;SDS011;53801;55.786;49.142;2022-09-21T07:28:19;24.40;;;10.60;;
66893;SDS011;53801;55.786;49.142;2022-09-21T07:30:44;23.75;;;10.23;;
66893;SDS011;53801;55.786;49.142;2022-09-21T07:33:10;20.90;;;10.68;;
66893;SDS011;53801;55.786;49.142;2022-09-21T07:35:35;22.33;;;11.33;;
66893;SDS011;53801;55.786;49.142;2022-09-21T07:38:02;25.90;;;10.63;;
66893;SDS011;53801;55.786;49.142;2022-09-21T07:40:28;16.87;;;9.13;;
66893;SDS011;53801;55.786;49.142;2022-09-21T07:43:02;21.38;;;8.80;;
66893;SDS011;53801;55.786;49.142;2022-09-21T07:45:28;18.60;;;9.52;;
66893;SDS011;53801;55.786;49.142;2022-09-21T07:47:55;16.87;;;8.57;;
66893;SDS011;53801;55.786;49.142;2022-09-21T07:50:21;24.08;;;9.07;;
66893;SDS011;53801;55.786;49.142;2022-09-21T07:52:46;29.23;;;9.27;;
66893;SDS011;53801;55.786;49.142;2022-09-21T07:55:54;18.27;;;8.10;;
66893;SDS011;53801;55.786;49.142;2022-09-21T07:58:03;17.85;;;8.45;;
66893;SDS011;53801;55.786;49.142;2022-09-21T08:01:07;15.63;;;8.30;;
66893;SDS011;53801;55.786;49.142;2022-09-21T08:03:32;22.83;;;9.75;;
66893;SDS011;53801;55.786;49.142;2022-09-21T08:05:58;20.90;;;9.83;;
66893;SDS011;53801;55.786;49.142;2022-09-21T08:08:24;21.40;;;11.30;;
66893;SDS011;53801;55.786;49.142;2022-09-21T08:10:52;23.00;;;11.40;;
66893;SDS011;53801;55.786;49.142;2022-09-21T08:13:18;23.98;;;11.98;;
66893;SDS011;53801;55.786;49.142;2022-09-21T08:15:44;30.27;;;12.93;;
66893;SDS011;53801;55.786;49.142;2022-09-21T08:18:09;22.33;;;12.60;;
66893;SDS011;53801;55.786;49.142;2022-09-21T08:23:07;29.98;;;12.57;;
66893;SDS011;53801;55.786;49.142;2022-09-21T08:25:35;23.45;;;12.30;;
66893;SDS011;53801;55.786;49.142;2022-09-21T08:28:01;33.70;;;12.87;;
66893;SDS011;53801;55.786;49.142;2022-09-21T08:30:26;27.23;;;12.82;;
66893;SDS011;53801;55.786;49.142;2022-09-21T08:32:53;19.98;;;10.60;;
66893;SDS011;53801;55.786;49.142;2022-09-21T08:35:18;23.13;;;10.80;;
66893;SDS011;53801;55.786;49.142;2022-09-21T08:37:44;23.85;;;11.02;;
66893;SDS011;53801;55.786;49.142;2022-09-21T08:40:09;22.43;;;10.83;;
66893;SDS011;53801;55.786;49.142;2022-09-21T08:45:06;23.13;;;10.27;;
66893;SDS011;53801;55.786;49.142;2022-09-21T08:50:51;22.38;;;10.63;;
66893;SDS011;53801;55.786;49.142;2022-09-21T08:53:05;21.40;;;10.07;;
66893;SDS011;53801;55.786;49.142;2022-09-21T08:55:32;22.65;;;10.88;;
66893;SDS011;53801;55.786;49.142;2022-09-21T08:57:58;23.70;;;10.90;;
66893;SDS011;53801;55.786;49.142;2022-09-21T09:00:24;23.38;;;11.35;;
66893;SDS011;53801;55.786;49.142;2022-09-21T09:15:37;17.58;;;9.30;;
66893;SDS011;53801;55.786;49.142;2022-09-21T09:18:09;23.50;;;10.73;;
66893;SDS011;53801;55.786;49.142;2022-09-21T09:29:44;16.45;;;10.60;;
66893;SDS011;53801;55.786;49.142;2022-09-21T09:35:37;16.47;;;8.83;;
66893;SDS011;53801;55.786;49.142;2022-09-21T09:50:12;16.43;;;8.13;;
66893;SDS011;53801;55.786;49.142;2022-09-21T09:52:44;17.02;;;7.68;;
66893;SDS011;53801;55.786;49.142;2022-09-21T09:55:17;16.30;;;7.45;;
66893;SDS011;53801;55.786;49.142;2022-09-21T09:57:47;12.07;;;6.07;;
66893;SDS011;53801;55.786;49.142;2022-09-21T10:00:15;14.65;;;5.80;;
66893;SDS011;53801;55.786;49.142;2022-09-21T10:02:51;8.83;;;4.00;;
66893;SDS011;53801;55.786;49.142;2022-09-21T10:05:20;8.00;;;3.60;;
66893;SDS011;53801;55.786;49.142;2022-09-21T10:07:46;5.90;;;3.72;;
66893;SDS011;53801;55.786;49.142;2022-09-21T10:12:48;7.45;;;3.25;;
66893;SDS011;53801;55.786;49.142;2022-09-21T10:15:15;5.43;;;3.20;;
66893;SDS011;53801;55.786;49.142;2022-09-21T10:17:43;9.20;;;2.95;;
66893;SDS011;53801;55.786;49.142;2022-09-21T10:20:14;11.15;;;3.22;;
66893;SDS011;53801;55.786;49.142;2022-09-21T10:22:41;8.60;;;3.28;;
66893;SDS011;53801;55.786;49.142;2022-09-21T10:25:13;6.38;;;3.13;;
66893;SDS011;53801;55.786;49.142;2022-09-21T10:27:41;5.77;;;3.00;;
66893;SDS011;53801;55.786;49.142;2022-09-21T10:30:31;9.48;;;3.17;;
66893;SDS011;53801;55.786;49.142;2022-09-21T10:32:57;16.58;;;3.80;;
66893;SDS011;53801;55.786;49.142;2022-09-21T10:35:23;14.93;;;3.58;;
66893;SDS011;53801;55.786;49.142;2022-09-21T10:38:07;12.07;;;3.25;;
66893;SDS011;53801;55.786;49.142;2022-09-21T10:40:34;11.10;;;3.60;;
66893;SDS011;53801;55.786;49.142;2022-09-21T10:43:00;11.13;;;3.65;;
66893;SDS011;53801;55.786;49.142;2022-09-21T10:45:29;16.27;;;4.07;;
66893;SDS011;53801;55.786;49.142;2022-09-21T10:47:59;11.98;;;3.95;;
66893;SDS011;53801;55.786;49.142;2022-09-21T10:50:35;17.15;;;6.68;;
66893;SDS011;53801;55.786;49.142;2022-09-21T10:55:35;6.78;;;2.40;;
66893;SDS011;53801;55.786;49.142;2022-09-21T10:58:01;10.45;;;2.88;;
66893;SDS011;53801;55.786;49.142;2022-09-21T11:00:28;11.27;;;3.47;;
66893;SDS011;53801;55.786;49.142;2022-09-21T11:02:59;6.47;;;2.50;;
66893;SDS011;53801;55.786;49.142;2022-09-21T11:05:27;4.30;;;2.20;;
66893;SDS011;53801;55.786;49.142;2022-09-21T11:07:57;8.15;;;3.03;;
66893;SDS011;53801;55.786;49.142;2022-09-21T11:34:06;7.40;;;2.97;;
66893;SDS011;53801;55.786;49.142;2022-09-21T11:45:54;5.15;;;2.80;;
66893;SDS011;53801;55.786;49.142;2022-09-21T12:16:31;4.03;;;2.60;;
66893;SDS011;53801;55.786;49.142;2022-09-21T12:25:53;6.93;;;2.93;;
66893;SDS011;53801;55.786;49.142;2022-09-21T12:46:42;7.00;;;3.63;;
66893;SDS011;53801;55.786;49.142;2022-09-21T13:14:33;4.85;;;2.78;;
66893;SDS011;53801;55.786;49.142;2022-09-21T13:26:40;8.77;;;3.60;;
66893;SDS011;53801;55.786;49.142;2022-09-21T14:22:32;12.77;;;4.40;;
66893;SDS011;53801;55.786;49.142;2022-09-21T14:27:43;11.13;;;5.00;;
66893;SDS011;53801;55.786;49.142;2022-09-21T14:33:10;8.25;;;4.80;;
66893;SDS011;53801;55.786;49.142;2022-09-21T14:35:37;9.43;;;4.40;;
66893;SDS011;53801;55.786;49.142;2022-09-21T14:41:08;13.23;;;4.72;;
66893;SDS011;53801;55.786;49.142;2022-09-21T15:02:41;10.88;;;4.57;;
66893;SDS011;53801;55.786;49.142;2022-09-21T15:18:15;13.90;;;4.72;;
66893;SDS011;53801;55.786;49.142;2022-09-21T15:21:27;16.77;;;5.83;;
66893;SDS011;53801;55.786;49.142;2022-09-21T15:33:09;10.05;;;4.80;;
66893;SDS011;53801;55.786;49.142;2022-09-21T16:38:12;10.17;;;5.47;;
66893;SDS011;53801;55.786;49.142;2022-09-21T16:41:08;8.05;;;5.55;;
66893;SDS011;53801;55.786;49.142;2022-09-21T16:52:11;10.47;;;6.60;;
66893;SDS011;53801;55.786;49.142;2022-09-21T17:05:38;18.50;;;7.60;;
66893;SDS011;53801;55.786;49.142;2022-09-21T17:08:24;12.80;;;6.60;;
66893;SDS011;53801;55.786;49.142;2022-09-21T17:11:03;14.93;;;6.95;;
66893;SDS011;53801;55.786;49.142;2022-09-21T18:07:52;14.50;;;5.00;;
66893;SDS011;53801;55.786;49.142;2022-09-21T18:19:23;9.05;;;4.53;;
66893;SDS011;53801;55.786;49.142;2022-09-21T19:01:03;14.73;;;5.30;;
66893;SDS011;53801;55.786;49.142;2022-09-21T19:04:08;12.70;;;5.50;;
66893;SDS011;53801;55.786;49.142;2022-09-21T19:07:08;12.10;;;5.45;;
66893;SDS011;53801;55.786;49.142;2022-09-21T19:31:11;12.65;;;5.30;;
66893;SDS011;53801;55.786;49.142;2022-09-21T19:33:37;13.63;;;5.07;;
66893;SDS011;53801;55.786;49.142;2022-09-21T19:36:03;14.60;;;5.00;;
66893;SDS011;53801;55.786;49.142;2022-09-21T19:38:45;16.42;;;5.95;;
66893;SDS011;53801;55.786;49.142;2022-09-21T19:46:44;17.70;;;9.93;;
66893;SDS011;53801;55.786;49.142;2022-09-21T19:49:17;16.85;;;9.50;;
66893;SDS011;53801;55.786;49.142;2022-09-21T19:58:29;15.90;;;6.97;;
66893;SDS011;53801;55.786;49.142;2022-09-21T20:01:21;15.60;;;6.57;;
66893;SDS011;53801;55.786;49.142;2022-09-21T20:04:05;14.85;;;6.78;;
66893;SDS011;53801;55.786;49.142;2022-09-21T20:06:48;16.23;;;6.35;;
66893;SDS011;53801;55.786;49.142;2022-09-21T20:09:35;13.77;;;5.95;;
66893;SDS011;53801;55.786;49.142;2022-09-21T20:18:05;11.20;;;4.90;;
66893;SDS011;53801;55.786;49.142;2022-09-21T20:20:54;13.00;;;5.10;;
66893;SDS011;53801;55.786;49.142;2022-09-21T20:23:45;10.32;;;4.35;;
66893;SDS011;53801;55.786;49.142;2022-09-21T20:26:22;12.75;;;4.82;;
66893;SDS011;53801;55.786;49.142;2022-09-21T20:29:11;10.73;;;4.20;;
66893;SDS011;53801;55.786;49.142;2022-09-21T20:31:46;12.23;;;4.68;;
66893;SDS011;53801;55.786;49.142;2022-09-21T20:34:14;14.20;;;5.15;;
66893;SDS011;53801;55.786;49.142;2022-09-21T20:37:10;21.45;;;7.38;;
66893;SDS011;53801;55.786;49.142;2022-09-21T20:45:38;19.73;;;8.50;;
66893;SDS011;53801;55.786;49.142;2022-09-21T20:50:58;20.25;;;8.57;;
66893;SDS011;53801;55.786;49.142;2022-09-21T21:02:33;19.13;;;8.18;;
66893;SDS011;53801;55.786;49.142;2022-09-21T21:10:18;17.17;;;7.23;;
66893;SDS011;53801;55.786;49.142;2022-09-21T21:12:45;17.98;;;8.35;;
66893;SDS011;53801;55.786;49.142;2022-09-21T21:15:10;28.33;;;18.10;;
66893;SDS011;53801;55.786;49.142;2022-09-21T21:17:41;23.30;;;13.68;;
66893;SDS011;53801;55.786;49.142;2022-09-21T21:20:09;24.40;;;10.98;;
66893;SDS011;53801;55.786;49.142;2022-09-21T21:22:35;18.48;;;7.78;;
66893;SDS011;53801;55.786;49.142;2022-09-21T21:25:16;24.70;;;10.02;;
66893;SDS011;53801;55.786;49.142;2022-09-21T21:28:06;16.93;;;5.40;;
66893;SDS011;53801;55.786;49.142;2022-09-21T21:30:54;16.67;;;8.88;;
66893;SDS011;53801;55.786;49.142;2022-09-21T21:33:21;15.15;;;5.50;;
66893;SDS011;53801;55.786;49.142;2022-09-21T21:35:46;14.03;;;5.53;;
66893;SDS011;53801;55.786;49.142;2022-09-21T21:38:22;14.80;;;5.13;;
66893;SDS011;53801;55.786;49.142;2022-09-21T21:40:54;15.75;;;4.50;;
66893;SDS011;53801;55.786;49.142;2022-09-21T21:43:31;20.40;;;5.55;;
66893;SDS011;53801;55.786;49.142;2022-09-21T21:46:02;15.38;;;5.97;;
66893;SDS011;53801;55.786;49.142;2022-09-21T21:48:27;21.40;;;7.40;;
66893;SDS011;53801;55.786;49.142;2022-09-21T21:51:02;21.08;;;7.53;;
66893;SDS011;53801;55.786;49.142;2022-09-21T21:53:40;22.37;;;8.47;;
66893;SDS011;53801;55.786;49.142;2022-09-21T21:56:11;15.85;;;7.93;;
66893;SDS011;53801;55.786;49.142;2022-09-21T21:58:41;21.30;;;7.57;;
66893;SDS011;53801;55.786;49.142;2022-09-21T22:01:16;19.40;;;7.00;;
66893;SDS011;53801;55.786;49.142;2022-09-21T22:03:46;19.40;;;6.47;;
66893;SDS011;53801;55.786;49.142;2022-09-21T22:06:12;17.50;;;6.18;;
66893;SDS011;53801;55.786;49.142;2022-09-21T22:08:38;16.50;;;5.87;;
66893;SDS011;53801;55.786;49.142;2022-09-21T22:11:04;17.05;;;5.80;;
66893;SDS011;53801;55.786;49.142;2022-09-21T22:13:31;14.05;;;5.57;;
66893;SDS011;53801;55.786;49.142;2022-09-21T22:16:07;17.80;;;5.80;;
66893;SDS011;53801;55.786;49.142;2022-09-21T22:18:39;15.13;;;6.23;;
66893;SDS011;53801;55.786;49.142;2022-09-21T22:21:11;18.02;;;6.03;;
66893;SDS011;53801;55.786;49.142;2022-09-21T22:23:37;11.38;;;5.60;;
66893;SDS011;53801;55.786;49.142;2022-09-21T22:26:12;16.48;;;5.55;;
66893;SDS011;53801;55.786;49.142;2022-09-21T22:28:38;26.13;;;7.35;;
66893;SDS011;53801;55.786;49.142;2022-09-21T22:31:07;14.20;;;6.30;;
66893;SDS011;53801;55.786;49.142;2022-09-21T22:33:33;11.63;;;5.72;;
66893;SDS011;53801;55.786;49.142;2022-09-21T22:36:00;17.42;;;6.45;;
66893;SDS011;53801;55.786;49.142;2022-09-21T22:38:26;16.95;;;6.40;;
66893;SDS011;53801;55.786;49.142;2022-09-21T22:41:06;14.33;;;6.20;;
66893;SDS011;53801;55.786;49.142;2022-09-21T22:43:32;14.68;;;6.38;;
66893;SDS011;53801;55.786;49.142;2022-09-21T22:46:03;13.52;;;6.35;;
66893;SDS011;53801;55.786;49.142;2022-09-21T22:48:31;14.85;;;6.53;;
66893;SDS011;53801;55.786;49.142;2022-09-21T22:51:00;16.48;;;6.85;;
66893;SDS011;53801;55.786;49.142;2022-09-21T22:53:49;16.00;;;6.83;;
66893;SDS011;53801;55.786;49.142;2022-09-21T22:56:16;16.10;;;7.22;;
66893;SDS011;53801;55.786;49.142;2022-09-21T22:58:47;17.58;;;7.50;;
66893;SDS011;53801;55.786;49.142;2022-09-21T23:01:35;13.32;;;7.18;;
66893;SDS011;53801;55.786;49.142;2022-09-21T23:04:06;19.48;;;7.18;;
66893;SDS011;53801;55.786;49.142;2022-09-21T23:06:32;14.07;;;6.93;;
66893;SDS011;53801;55.786;49.142;2022-09-21T23:08:59;15.57;;;6.82;;
66893;SDS011;53801;55.786;49.142;2022-09-21T23:11:27;14.00;;;7.00;;
66893;SDS011;53801;55.786;49.142;2022-09-21T23:13:56;14.85;;;7.07;;
66893;SDS011;53801;55.786;49.142;2022-09-21T23:16:22;15.00;;;7.38;;
66893;SDS011;53801;55.786;49.142;2022-09-21T23:18:48;14.03;;;7.60;;
66893;SDS011;53801;55.786;49.142;2022-09-21T23:21:15;17.38;;;7.28;;
66893;SDS011;53801;55.786;49.142;2022-09-21T23:23:41;18.48;;;7.50;;
66893;SDS011;53801;55.786;49.142;2022-09-21T23:26:12;12.13;;;7.10;;
66893;SDS011;53801;55.786;49.142;2022-09-21T23:28:40;13.82;;;7.03;;
66893;SDS011;53801;55.786;49.142;2022-09-21T23:54:36;11.88;;;5.95;;
66893;SDS011;53801;55.786;49.142;2022-09-21T23:59:55;17.60;;;6.47;;
